WIF5H ENBR-ENVA
Flight info
| Callsign | WIF5H |
|---|---|
| Flight time | 0h 55m |
| Altitude | 23000 |
| Route | INTUM DCT NELSU |
| Aircraft | DH8D/M-SDE2E3FGRY/H |
Departure
| Time | 2026-04-27 19:53 |
|---|---|
| Airport | Bergen Airport, Flesland (ENBR) |
Arrival
| Time | 2026-04-27 20:49 |
|---|---|
| Airport | Trondheim Airport, Værnes (ENVA) |
| Time | Latitude | Longitude | Altitude | Speed | Heading |
|---|---|---|---|---|---|
| 2026-04-27 19:42 | 60.28618 | 5.22937 | 175 ft | 0 kts | 81° |
| 2026-04-27 19:48 | 60.28617 | 5.22921 | 174 ft | 2 kts | 82° |
| 2026-04-27 19:49 | 60.28614 | 5.22892 | 173 ft | 2 kts | 81° |
| 2026-04-27 19:49 | 60.28612 | 5.22862 | 172 ft | 2 kts | 81° |
| 2026-04-27 19:49 | 60.28611 | 5.22847 | 172 ft | 0 kts | 81° |
| 2026-04-27 19:51 | 60.28616 | 5.22856 | 172 ft | 2 kts | 17° |
| 2026-04-27 19:51 | 60.28645 | 5.22797 | 172 ft | 9 kts | 313° |
| 2026-04-27 19:51 | 60.28668 | 5.22648 | 170 ft | 14 kts | 263° |
| 2026-04-27 19:51 | 60.28675 | 5.22462 | 170 ft | 6 kts | 274° |
| 2026-04-27 19:52 | 60.28675 | 5.22403 | 168 ft | 8 kts | 269° |
| 2026-04-27 19:52 | 60.28671 | 5.22312 | 167 ft | 11 kts | 263° |
| 2026-04-27 19:52 | 60.28671 | 5.22058 | 161 ft | 13 kts | 303° |
| 2026-04-27 19:52 | 60.28849 | 5.21975 | 164 ft | 64 kts | 349° |
| 2026-04-27 19:53 | 60.30563 | 5.21491 | 846 ft | 151 kts | 352° |
| 2026-04-27 19:53 | 60.31622 | 5.21177 | 1622 ft | 163 kts | 351° |
| 2026-04-27 19:53 | 60.32847 | 5.20764 | 1797 ft | 194 kts | 350° |
| 2026-04-27 19:54 | 60.34191 | 5.20288 | 2346 ft | 200 kts | 350° |
| 2026-04-27 19:54 | 60.35560 | 5.19805 | 2925 ft | 205 kts | 351° |
| 2026-04-27 19:54 | 60.36958 | 5.19316 | 3538 ft | 208 kts | 351° |
| 2026-04-27 19:54 | 60.38378 | 5.18824 | 4214 ft | 208 kts | 351° |
| 2026-04-27 19:55 | 60.39788 | 5.18337 | 4898 ft | 208 kts | 351° |
| 2026-04-27 19:55 | 60.41219 | 5.18298 | 5493 ft | 209 kts | 16° |
| 2026-04-27 19:55 | 60.42504 | 5.19561 | 6104 ft | 210 kts | 28° |
| 2026-04-27 19:55 | 60.43760 | 5.21010 | 6721 ft | 212 kts | 28° |
| 2026-04-27 19:56 | 60.45032 | 5.22492 | 7358 ft | 214 kts | 28° |
| 2026-04-27 19:56 | 60.46316 | 5.23996 | 8002 ft | 216 kts | 28° |
| 2026-04-27 19:56 | 60.47609 | 5.25515 | 8623 ft | 218 kts | 28° |
| 2026-04-27 19:56 | 60.48922 | 5.27060 | 9239 ft | 220 kts | 28° |
| 2026-04-27 19:57 | 60.50230 | 5.28603 | 9850 ft | 222 kts | 28° |
| 2026-04-27 19:57 | 60.51574 | 5.30189 | 10481 ft | 225 kts | 28° |
| 2026-04-27 19:57 | 60.52899 | 5.31756 | 11131 ft | 225 kts | 28° |
| 2026-04-27 19:57 | 60.54253 | 5.33359 | 11731 ft | 228 kts | 28° |
| 2026-04-27 19:58 | 60.55623 | 5.34984 | 12395 ft | 229 kts | 28° |
| 2026-04-27 19:58 | 60.57007 | 5.36625 | 12980 ft | 233 kts | 28° |
| 2026-04-27 19:58 | 60.58393 | 5.38273 | 13613 ft | 235 kts | 28° |
| 2026-04-27 19:58 | 60.59806 | 5.39953 | 14205 ft | 237 kts | 28° |
| 2026-04-27 19:59 | 60.61223 | 5.41639 | 14794 ft | 238 kts | 27° |
| 2026-04-27 19:59 | 60.62637 | 5.43323 | 15353 ft | 239 kts | 27° |
| 2026-04-27 19:59 | 60.64076 | 5.45040 | 15907 ft | 241 kts | 27° |
| 2026-04-27 19:59 | 60.65521 | 5.46766 | 16450 ft | 241 kts | 27° |
| 2026-04-27 20:00 | 60.66956 | 5.48481 | 16954 ft | 243 kts | 27° |
| 2026-04-27 20:00 | 60.68416 | 5.50228 | 17433 ft | 246 kts | 27° |
| 2026-04-27 20:00 | 60.69884 | 5.51986 | 17943 ft | 245 kts | 27° |
| 2026-04-27 20:00 | 60.71336 | 5.53728 | 18394 ft | 247 kts | 27° |
| 2026-04-27 20:01 | 60.72812 | 5.55499 | 18826 ft | 249 kts | 26° |
| 2026-04-27 20:01 | 60.74297 | 5.57284 | 19308 ft | 248 kts | 26° |
| 2026-04-27 20:01 | 60.75775 | 5.59062 | 19721 ft | 249 kts | 26° |
| 2026-04-27 20:01 | 60.77261 | 5.60853 | 20116 ft | 251 kts | 26° |
| 2026-04-27 20:02 | 60.78762 | 5.62662 | 20495 ft | 251 kts | 26° |
| 2026-04-27 20:02 | 60.80277 | 5.64491 | 20822 ft | 254 kts | 26° |
| 2026-04-27 20:02 | 60.81792 | 5.66322 | 21166 ft | 254 kts | 27° |
| 2026-04-27 20:02 | 60.83304 | 5.68152 | 21515 ft | 254 kts | 27° |
| 2026-04-27 20:03 | 60.84817 | 5.69985 | 21840 ft | 254 kts | 26° |
| 2026-04-27 20:03 | 60.86340 | 5.71830 | 22081 ft | 257 kts | 26° |
| 2026-04-27 20:03 | 60.87871 | 5.73689 | 22395 ft | 256 kts | 26° |
| 2026-04-27 20:03 | 60.89401 | 5.75549 | 22679 ft | 256 kts | 26° |
| 2026-04-27 20:04 | 60.90921 | 5.77398 | 22914 ft | 258 kts | 26° |
| 2026-04-27 20:04 | 60.92474 | 5.79289 | 23163 ft | 258 kts | 26° |
| 2026-04-27 20:04 | 60.94033 | 5.81189 | 23302 ft | 263 kts | 26° |
| 2026-04-27 20:04 | 60.95088 | 5.82472 | 23333 ft | 268 kts | 26° |
| 2026-04-27 20:05 | 60.97226 | 5.85146 | 23342 ft | 279 kts | 30° |
| 2026-04-27 20:05 | 60.98807 | 5.87583 | 23343 ft | 287 kts | 33° |
| 2026-04-27 20:05 | 61.00376 | 5.90129 | 23332 ft | 293 kts | 34° |
| 2026-04-27 20:05 | 61.01984 | 5.92744 | 23330 ft | 297 kts | 33° |
| 2026-04-27 20:06 | 61.03609 | 5.95387 | 23323 ft | 301 kts | 33° |
| 2026-04-27 20:06 | 61.05262 | 5.98075 | 23314 ft | 304 kts | 33° |
| 2026-04-27 20:06 | 61.06930 | 6.00788 | 23308 ft | 307 kts | 33° |
| 2026-04-27 20:06 | 61.08605 | 6.03516 | 23310 ft | 309 kts | 33° |
| 2026-04-27 20:07 | 61.10285 | 6.06253 | 23316 ft | 310 kts | 33° |
| 2026-04-27 20:07 | 61.11987 | 6.09030 | 23314 ft | 312 kts | 33° |
| 2026-04-27 20:07 | 61.13691 | 6.11811 | 23319 ft | 313 kts | 33° |
| 2026-04-27 20:07 | 61.15377 | 6.14568 | 23326 ft | 314 kts | 33° |
| 2026-04-27 20:08 | 61.17096 | 6.17381 | 23330 ft | 315 kts | 33° |
| 2026-04-27 20:08 | 61.18817 | 6.20203 | 23330 ft | 316 kts | 33° |
| 2026-04-27 20:08 | 61.20538 | 6.23027 | 23335 ft | 317 kts | 33° |
| 2026-04-27 20:08 | 61.22257 | 6.25854 | 23336 ft | 317 kts | 33° |
| 2026-04-27 20:09 | 61.23980 | 6.28689 | 23343 ft | 317 kts | 33° |
| 2026-04-27 20:09 | 61.25688 | 6.31504 | 23346 ft | 317 kts | 33° |
| 2026-04-27 20:09 | 61.27431 | 6.34382 | 23349 ft | 318 kts | 33° |
| 2026-04-27 20:09 | 61.29142 | 6.37210 | 23354 ft | 318 kts | 33° |
| 2026-04-27 20:10 | 61.30859 | 6.40051 | 23352 ft | 318 kts | 33° |
| 2026-04-27 20:10 | 61.32579 | 6.42902 | 23344 ft | 318 kts | 33° |
| 2026-04-27 20:10 | 61.34302 | 6.45762 | 23335 ft | 318 kts | 33° |
| 2026-04-27 20:10 | 61.36026 | 6.48627 | 23338 ft | 318 kts | 33° |
| 2026-04-27 20:11 | 61.37769 | 6.51529 | 23325 ft | 319 kts | 33° |
| 2026-04-27 20:11 | 61.39489 | 6.54397 | 23316 ft | 319 kts | 33° |
| 2026-04-27 20:11 | 61.41215 | 6.57278 | 23321 ft | 319 kts | 33° |
| 2026-04-27 20:11 | 61.42939 | 6.60162 | 23323 ft | 319 kts | 33° |
| 2026-04-27 20:12 | 61.44659 | 6.63042 | 23322 ft | 319 kts | 33° |
| 2026-04-27 20:12 | 61.45820 | 6.64989 | 23322 ft | 319 kts | 33° |
| 2026-04-27 20:12 | 61.48099 | 6.68814 | 23330 ft | 318 kts | 33° |
| 2026-04-27 20:12 | 61.49841 | 6.71744 | 23332 ft | 318 kts | 34° |
| 2026-04-27 20:13 | 61.51487 | 6.74831 | 23346 ft | 322 kts | 40° |
| 2026-04-27 20:13 | 61.53003 | 6.78290 | 23354 ft | 323 kts | 42° |
| 2026-04-27 20:13 | 61.54493 | 6.81763 | 23361 ft | 323 kts | 42° |
| 2026-04-27 20:13 | 61.55985 | 6.85245 | 23365 ft | 323 kts | 42° |
| 2026-04-27 20:14 | 61.57470 | 6.88711 | 23368 ft | 323 kts | 42° |
| 2026-04-27 20:14 | 61.58967 | 6.92207 | 23372 ft | 323 kts | 41° |
| 2026-04-27 20:14 | 61.60473 | 6.95725 | 23368 ft | 323 kts | 42° |
| 2026-04-27 20:14 | 61.61978 | 6.99242 | 23369 ft | 323 kts | 41° |
| 2026-04-27 20:15 | 61.63459 | 7.02708 | 23362 ft | 323 kts | 41° |
| 2026-04-27 20:15 | 61.64956 | 7.06216 | 23352 ft | 323 kts | 41° |
| 2026-04-27 20:15 | 61.66467 | 7.09761 | 23338 ft | 324 kts | 41° |
| 2026-04-27 20:15 | 61.67964 | 7.13277 | 23329 ft | 324 kts | 41° |
| 2026-04-27 20:16 | 61.69458 | 7.16792 | 23317 ft | 324 kts | 41° |
| 2026-04-27 20:16 | 61.70944 | 7.20292 | 23304 ft | 324 kts | 41° |
| 2026-04-27 20:16 | 61.72444 | 7.23832 | 23295 ft | 324 kts | 41° |
| 2026-04-27 20:16 | 61.73951 | 7.27395 | 23291 ft | 324 kts | 41° |
| 2026-04-27 20:17 | 61.75439 | 7.30917 | 23290 ft | 323 kts | 41° |
| 2026-04-27 20:17 | 61.76917 | 7.34419 | 23297 ft | 323 kts | 41° |
| 2026-04-27 20:17 | 61.78405 | 7.37952 | 23296 ft | 323 kts | 41° |
| 2026-04-27 20:17 | 61.79418 | 7.40359 | 23296 ft | 323 kts | 41° |
| 2026-04-27 20:18 | 61.81382 | 7.45035 | 23300 ft | 323 kts | 41° |
| 2026-04-27 20:18 | 61.82886 | 7.48622 | 23304 ft | 323 kts | 41° |
| 2026-04-27 20:18 | 61.84362 | 7.52148 | 23306 ft | 323 kts | 41° |
| 2026-04-27 20:18 | 61.85837 | 7.55677 | 23309 ft | 323 kts | 41° |
| 2026-04-27 20:19 | 61.87336 | 7.59268 | 23315 ft | 323 kts | 41° |
| 2026-04-27 20:19 | 61.88811 | 7.62811 | 23315 ft | 323 kts | 41° |
| 2026-04-27 20:19 | 61.90294 | 7.66373 | 23318 ft | 323 kts | 42° |
| 2026-04-27 20:19 | 61.91779 | 7.69948 | 23323 ft | 323 kts | 41° |
| 2026-04-27 20:20 | 61.93265 | 7.73534 | 23325 ft | 323 kts | 41° |
| 2026-04-27 20:20 | 61.94740 | 7.77096 | 23330 ft | 323 kts | 42° |
| 2026-04-27 20:20 | 61.96210 | 7.80652 | 23326 ft | 323 kts | 41° |
| 2026-04-27 20:20 | 61.97699 | 7.84261 | 23326 ft | 323 kts | 42° |
| 2026-04-27 20:21 | 61.99170 | 7.87831 | 23328 ft | 324 kts | 41° |
| 2026-04-27 20:21 | 62.00655 | 7.91441 | 23325 ft | 324 kts | 41° |
| 2026-04-27 20:21 | 62.02126 | 7.95024 | 23314 ft | 324 kts | 42° |
| 2026-04-27 20:21 | 62.03597 | 7.98613 | 23318 ft | 323 kts | 41° |
| 2026-04-27 20:22 | 62.05067 | 8.02205 | 23322 ft | 323 kts | 41° |
| 2026-04-27 20:22 | 62.06532 | 8.05788 | 23320 ft | 323 kts | 41° |
| 2026-04-27 20:22 | 62.08016 | 8.09425 | 23323 ft | 323 kts | 41° |
| 2026-04-27 20:22 | 62.09478 | 8.13014 | 23316 ft | 323 kts | 41° |
| 2026-04-27 20:23 | 62.10944 | 8.16617 | 23321 ft | 323 kts | 41° |
| 2026-04-27 20:23 | 62.12410 | 8.20226 | 23325 ft | 324 kts | 41° |
| 2026-04-27 20:23 | 62.13881 | 8.23854 | 23329 ft | 324 kts | 42° |
| 2026-04-27 20:23 | 62.15361 | 8.27510 | 23340 ft | 324 kts | 41° |
| 2026-04-27 20:24 | 62.16826 | 8.31132 | 23337 ft | 325 kts | 41° |
| 2026-04-27 20:24 | 62.18293 | 8.34768 | 23330 ft | 325 kts | 41° |
| 2026-04-27 20:24 | 62.19774 | 8.38443 | 23322 ft | 326 kts | 41° |
| 2026-04-27 20:24 | 62.21245 | 8.42102 | 23315 ft | 326 kts | 41° |
| 2026-04-27 20:25 | 62.22713 | 8.45759 | 23310 ft | 326 kts | 41° |
| 2026-04-27 20:25 | 62.24180 | 8.49419 | 23303 ft | 326 kts | 41° |
| 2026-04-27 20:25 | 62.25646 | 8.53084 | 23302 ft | 326 kts | 41° |
| 2026-04-27 20:25 | 62.27135 | 8.56810 | 23302 ft | 326 kts | 41° |
| 2026-04-27 20:26 | 62.28596 | 8.60474 | 23308 ft | 325 kts | 41° |
| 2026-04-27 20:26 | 62.30059 | 8.64149 | 23317 ft | 325 kts | 41° |
| 2026-04-27 20:26 | 62.31528 | 8.67842 | 23318 ft | 325 kts | 42° |
| 2026-04-27 20:26 | 62.32986 | 8.71515 | 23323 ft | 325 kts | 42° |
| 2026-04-27 20:27 | 62.34445 | 8.75197 | 23321 ft | 325 kts | 42° |
| 2026-04-27 20:27 | 62.35896 | 8.78866 | 23317 ft | 325 kts | 42° |
| 2026-04-27 20:27 | 62.37351 | 8.82548 | 23320 ft | 325 kts | 42° |
| 2026-04-27 20:27 | 62.38819 | 8.86271 | 23315 ft | 325 kts | 42° |
| 2026-04-27 20:28 | 62.40277 | 8.89974 | 23316 ft | 325 kts | 42° |
| 2026-04-27 20:28 | 62.41728 | 8.93665 | 23313 ft | 324 kts | 42° |
| 2026-04-27 20:28 | 62.43166 | 8.97331 | 23325 ft | 324 kts | 42° |
| 2026-04-27 20:28 | 62.44149 | 8.99839 | 23332 ft | 324 kts | 42° |
| 2026-04-27 20:29 | 62.46073 | 9.04758 | 23337 ft | 324 kts | 42° |
| 2026-04-27 20:29 | 62.47517 | 9.08453 | 23335 ft | 324 kts | 42° |
| 2026-04-27 20:29 | 62.48963 | 9.12164 | 23338 ft | 324 kts | 41° |
| 2026-04-27 20:29 | 62.50420 | 9.15905 | 23335 ft | 324 kts | 41° |
| 2026-04-27 20:30 | 62.51865 | 9.19625 | 23334 ft | 324 kts | 41° |
| 2026-04-27 20:30 | 62.53313 | 9.23358 | 23329 ft | 324 kts | 42° |
| 2026-04-27 20:30 | 62.54760 | 9.27094 | 23321 ft | 324 kts | 41° |
| 2026-04-27 20:30 | 62.56198 | 9.30815 | 23316 ft | 324 kts | 41° |
| 2026-04-27 20:31 | 62.57638 | 9.34546 | 23314 ft | 324 kts | 41° |
| 2026-04-27 20:31 | 62.59080 | 9.38287 | 23311 ft | 324 kts | 41° |
| 2026-04-27 20:31 | 62.60502 | 9.41986 | 23310 ft | 324 kts | 41° |
| 2026-04-27 20:31 | 62.61950 | 9.45754 | 23305 ft | 324 kts | 41° |
| 2026-04-27 20:32 | 62.63370 | 9.49457 | 23311 ft | 323 kts | 41° |
| 2026-04-27 20:32 | 62.64803 | 9.53203 | 23315 ft | 323 kts | 41° |
| 2026-04-27 20:32 | 62.66231 | 9.56939 | 23318 ft | 323 kts | 41° |
| 2026-04-27 20:32 | 62.67662 | 9.60690 | 23314 ft | 323 kts | 41° |
| 2026-04-27 20:33 | 62.69090 | 9.64438 | 23311 ft | 323 kts | 41° |
| 2026-04-27 20:33 | 62.70529 | 9.68222 | 23311 ft | 323 kts | 42° |
| 2026-04-27 20:33 | 62.71937 | 9.71932 | 23312 ft | 322 kts | 42° |
| 2026-04-27 20:33 | 62.73368 | 9.75706 | 23311 ft | 322 kts | 42° |
| 2026-04-27 20:34 | 62.74780 | 9.79438 | 23318 ft | 322 kts | 42° |
| 2026-04-27 20:34 | 62.76199 | 9.83196 | 23338 ft | 321 kts | 42° |
| 2026-04-27 20:34 | 62.77609 | 9.86937 | 23340 ft | 321 kts | 42° |
| 2026-04-27 20:34 | 62.79045 | 9.90737 | 22836 ft | 331 kts | 42° |
| 2026-04-27 20:35 | 62.80502 | 9.94608 | 22428 ft | 327 kts | 42° |
| 2026-04-27 20:35 | 62.81934 | 9.98425 | 22045 ft | 325 kts | 43° |
| 2026-04-27 20:35 | 62.83342 | 10.02185 | 21672 ft | 324 kts | 43° |
| 2026-04-27 20:35 | 62.84758 | 10.05972 | 21299 ft | 323 kts | 43° |
| 2026-04-27 20:36 | 62.86176 | 10.09767 | 20930 ft | 324 kts | 43° |
| 2026-04-27 20:36 | 62.87598 | 10.13580 | 20549 ft | 326 kts | 43° |
| 2026-04-27 20:36 | 62.89041 | 10.17457 | 20167 ft | 327 kts | 43° |
| 2026-04-27 20:36 | 62.90465 | 10.21287 | 19785 ft | 328 kts | 43° |
| 2026-04-27 20:37 | 62.91903 | 10.25164 | 19407 ft | 330 kts | 43° |
| 2026-04-27 20:37 | 62.93346 | 10.29059 | 19032 ft | 332 kts | 43° |
| 2026-04-27 20:37 | 62.94813 | 10.33030 | 18643 ft | 334 kts | 43° |
| 2026-04-27 20:37 | 62.96269 | 10.36977 | 18257 ft | 335 kts | 44° |
| 2026-04-27 20:38 | 62.97726 | 10.40935 | 17871 ft | 335 kts | 44° |
| 2026-04-27 20:38 | 62.99170 | 10.44865 | 17488 ft | 333 kts | 44° |
| 2026-04-27 20:38 | 63.00611 | 10.48797 | 17110 ft | 328 kts | 43° |
| 2026-04-27 20:38 | 63.02025 | 10.52659 | 16733 ft | 324 kts | 43° |
| 2026-04-27 20:39 | 63.03428 | 10.56496 | 16350 ft | 322 kts | 43° |
| 2026-04-27 20:39 | 63.04833 | 10.60344 | 15850 ft | 324 kts | 43° |
| 2026-04-27 20:39 | 63.06233 | 10.64174 | 15188 ft | 320 kts | 43° |
| 2026-04-27 20:39 | 63.07617 | 10.67984 | 14735 ft | 316 kts | 44° |
| 2026-04-27 20:40 | 63.08965 | 10.71700 | 14338 ft | 311 kts | 44° |
| 2026-04-27 20:40 | 63.10306 | 10.75400 | 13978 ft | 306 kts | 44° |
| 2026-04-27 20:40 | 63.11621 | 10.79034 | 13612 ft | 302 kts | 44° |
| 2026-04-27 20:40 | 63.12913 | 10.82609 | 13279 ft | 298 kts | 44° |
| 2026-04-27 20:41 | 63.14191 | 10.86152 | 12938 ft | 295 kts | 44° |
| 2026-04-27 20:41 | 63.15454 | 10.89657 | 12601 ft | 292 kts | 44° |
| 2026-04-27 20:41 | 63.16719 | 10.93173 | 12258 ft | 290 kts | 44° |
| 2026-04-27 20:41 | 63.17958 | 10.96623 | 11933 ft | 287 kts | 44° |
| 2026-04-27 20:42 | 63.19200 | 11.00087 | 11615 ft | 285 kts | 45° |
| 2026-04-27 20:42 | 63.20419 | 11.03490 | 11290 ft | 283 kts | 45° |
| 2026-04-27 20:42 | 63.21666 | 11.06745 | 10884 ft | 274 kts | 39° |
| 2026-04-27 20:42 | 63.22990 | 11.09691 | 10277 ft | 271 kts | 37° |
| 2026-04-27 20:43 | 63.24506 | 11.12016 | 9807 ft | 259 kts | 24° |
| 2026-04-27 20:43 | 63.26125 | 11.13505 | 9266 ft | 255 kts | 15° |
| 2026-04-27 20:43 | 63.27829 | 11.14472 | 8704 ft | 249 kts | 11° |
| 2026-04-27 20:43 | 63.29491 | 11.15273 | 8130 ft | 243 kts | 9° |
| 2026-04-27 20:44 | 63.31126 | 11.15955 | 7586 ft | 238 kts | 8° |
| 2026-04-27 20:44 | 63.32736 | 11.16492 | 6988 ft | 234 kts | 6° |
| 2026-04-27 20:44 | 63.34316 | 11.16933 | 6396 ft | 231 kts | 5° |
| 2026-04-27 20:44 | 63.35895 | 11.17236 | 5810 ft | 229 kts | 4° |
| 2026-04-27 20:45 | 63.37476 | 11.17489 | 5256 ft | 226 kts | 4° |
| 2026-04-27 20:45 | 63.39015 | 11.17751 | 4669 ft | 226 kts | 3° |
| 2026-04-27 20:45 | 63.40590 | 11.18049 | 3975 ft | 231 kts | 5° |
| 2026-04-27 20:45 | 63.42186 | 11.18420 | 3357 ft | 230 kts | 4° |
| 2026-04-27 20:46 | 63.43748 | 11.18622 | 2954 ft | 223 kts | 1° |
| 2026-04-27 20:46 | 63.45140 | 11.17611 | 2543 ft | 216 kts | 317° |
| 2026-04-27 20:46 | 63.45617 | 11.14573 | 2108 ft | 212 kts | 275° |
| 2026-04-27 20:46 | 63.45641 | 11.11497 | 1660 ft | 194 kts | 274° |
| 2026-04-27 20:47 | 63.45685 | 11.08664 | 1369 ft | 171 kts | 274° |
| 2026-04-27 20:47 | 63.45708 | 11.06133 | 1090 ft | 156 kts | 273° |
| 2026-04-27 20:47 | 63.45718 | 11.03741 | 889 ft | 154 kts | 273° |
| 2026-04-27 20:47 | 63.45728 | 11.01512 | 753 ft | 133 kts | 271° |
| 2026-04-27 20:48 | 63.45737 | 10.99585 | 632 ft | 120 kts | 272° |
| 2026-04-27 20:48 | 63.45744 | 10.98331 | 538 ft | 123 kts | 271° |
| 2026-04-27 20:48 | 63.45750 | 10.95723 | 264 ft | 128 kts | 272° |
| 2026-04-27 20:48 | 63.45756 | 10.93819 | 44 ft | 115 kts | 270° |
| 2026-04-27 20:49 | 63.45757 | 10.92772 | 16 ft | 22 kts | 268° |
| 2026-04-27 20:49 | 63.45728 | 10.92473 | 12 ft | 15 kts | 217° |
| 2026-04-27 20:49 | 63.45617 | 10.92402 | 9 ft | 17 kts | 216° |
| 2026-04-27 20:49 | 63.45598 | 10.92086 | 5 ft | 23 kts | 269° |
| 2026-04-27 20:50 | 63.45595 | 10.91679 | 4 ft | 22 kts | 275° |
| 2026-04-27 20:50 | 63.45598 | 10.91294 | 2 ft | 22 kts | 271° |
| 2026-04-27 20:50 | 63.45551 | 10.91150 | 2 ft | 13 kts | 189° |
| 2026-04-27 20:50 | 63.45496 | 10.91216 | 2 ft | 9 kts | 91° |
| 2026-04-27 20:51 | 63.45496 | 10.91319 | 2 ft | 4 kts | 89° |
| 2026-04-27 20:51 | 63.45496 | 10.91333 | 2 ft | 0 kts | 89° |